createdAt,value
2023-04-18T00:00:26.875Z,23.18
2023-04-18T00:01:26.901Z,23.17
2023-04-18T00:02:27.008Z,23.16
2023-04-18T00:03:27.181Z,23.17
2023-04-18T00:04:27.221Z,23.17
2023-04-18T00:05:27.084Z,23.17
2023-04-18T00:06:27.029Z,23.17
2023-04-18T00:07:27.094Z,23.17
2023-04-18T00:08:27.090Z,23.16
2023-04-18T00:09:27.148Z,23.16
2023-04-18T00:10:27.163Z,23.17
2023-04-18T00:11:27.165Z,23.17
2023-04-18T00:12:27.214Z,23.17
2023-04-18T00:13:27.212Z,23.16
2023-04-18T00:14:27.263Z,23.16
2023-04-18T00:15:27.286Z,23.16
2023-04-18T00:16:27.424Z,23.16
2023-04-18T00:17:27.379Z,23.15
2023-04-18T00:18:27.365Z,23.15
2023-04-18T00:19:27.358Z,23.15
2023-04-18T00:20:27.395Z,23.15
2023-04-18T00:21:27.417Z,23.16
2023-04-18T00:22:27.422Z,23.15
2023-04-18T00:23:27.453Z,23.15
2023-04-18T00:24:27.513Z,23.15
2023-04-18T00:25:27.525Z,23.15
2023-04-18T00:26:27.551Z,23.15
2023-04-18T00:27:27.537Z,23.14
2023-04-18T00:28:27.621Z,23.15
2023-04-18T00:29:27.631Z,23.15
2023-04-18T00:30:27.633Z,23.15
2023-04-18T00:31:27.789Z,23.15
2023-04-18T00:32:27.714Z,23.14
2023-04-18T00:33:27.787Z,23.15
2023-04-18T00:34:27.732Z,23.15
2023-04-18T00:35:27.779Z,23.15
2023-04-18T00:36:27.803Z,23.15
2023-04-18T00:37:27.828Z,23.15
2023-04-18T00:38:27.856Z,23.14
2023-04-18T00:39:27.864Z,23.14
2023-04-18T00:40:27.904Z,23.14
2023-04-18T00:41:27.925Z,23.14
2023-04-18T00:42:27.954Z,23.14
2023-04-18T00:43:27.981Z,23.14
2023-04-18T00:44:27.989Z,23.14
2023-04-18T00:45:27.992Z,23.14
2023-04-18T00:46:28.060Z,23.14
2023-04-18T00:47:28.170Z,23.14
2023-04-18T00:48:28.085Z,23.14
2023-04-18T00:49:28.108Z,23.14
2023-04-18T00:50:28.126Z,23.14
2023-04-18T00:51:28.159Z,23.14
2023-04-18T00:52:28.175Z,23.15
2023-04-18T00:53:28.235Z,23.14
2023-04-18T00:54:28.257Z,23.13
2023-04-18T00:55:28.264Z,23.13
2023-04-18T00:56:28.294Z,23.13
2023-04-18T00:57:28.298Z,23.13
2023-04-18T00:58:28.300Z,23.14
2023-04-18T00:59:28.362Z,23.13
2023-04-18T01:00:28.382Z,23.13
2023-04-18T01:01:28.466Z,23.13
2023-04-18T01:02:28.495Z,23.13
2023-04-18T01:03:28.560Z,23.13
2023-04-18T01:04:28.550Z,23.13
2023-04-18T01:05:28.524Z,23.13
2023-04-18T01:06:28.540Z,23.13
2023-04-18T01:07:28.529Z,23.13
2023-04-18T01:08:28.580Z,23.12
2023-04-18T01:09:28.619Z,23.13
2023-04-18T01:10:28.652Z,23.12
2023-04-18T01:11:28.677Z,23.13
2023-04-18T01:12:28.720Z,23.12
2023-04-18T01:13:28.725Z,23.12
2023-04-18T01:14:28.771Z,23.12
2023-04-18T01:15:28.781Z,23.12
2023-04-18T01:16:28.881Z,23.12
2023-04-18T01:17:28.873Z,23.12
2023-04-18T01:18:28.842Z,23.12
2023-04-18T01:19:28.889Z,23.12
2023-04-18T01:20:28.896Z,23.13
2023-04-18T01:21:28.919Z,23.12
2023-04-18T01:22:28.982Z,23.12
2023-04-18T01:23:28.994Z,23.12
2023-04-18T01:24:29.026Z,23.11
2023-04-18T01:25:29.054Z,23.12
2023-04-18T01:26:29.082Z,23.12
2023-04-18T01:27:29.119Z,23.12
2023-04-18T01:28:29.116Z,23.11
2023-04-18T01:29:29.150Z,23.11
2023-04-18T01:30:29.164Z,23.11
2023-04-18T01:31:29.266Z,23.12
2023-04-18T01:32:29.265Z,23.11
2023-04-18T01:33:29.250Z,23.12
2023-04-18T01:34:29.302Z,23.11
2023-04-18T01:35:29.345Z,23.11
2023-04-18T01:36:29.363Z,23.12
2023-04-18T01:37:29.348Z,23.11
2023-04-18T01:38:29.437Z,23.11
2023-04-18T01:39:29.462Z,23.11
2023-04-18T01:40:29.462Z,23.11
2023-04-18T01:41:29.491Z,23.11
2023-04-18T01:42:29.512Z,23.11
2023-04-18T01:43:29.576Z,23.11
2023-04-18T01:44:29.555Z,23.11
2023-04-18T01:45:29.603Z,23.11
2023-04-18T01:46:29.661Z,23.11
2023-04-18T01:47:29.693Z,23.11
2023-04-18T01:48:29.707Z,23.11
2023-04-18T01:49:29.712Z,23.10
2023-04-18T01:50:29.742Z,23.10
2023-04-18T01:51:29.802Z,23.10
2023-04-18T01:52:29.836Z,23.11
2023-04-18T01:53:29.889Z,23.11
2023-04-18T01:54:29.915Z,23.11
2023-04-18T01:55:29.900Z,23.11
2023-04-18T01:56:29.936Z,23.11
2023-04-18T01:57:29.963Z,23.10
2023-04-18T01:58:30.010Z,23.11
2023-04-18T01:59:30.058Z,23.10
2023-04-18T02:00:30.140Z,23.10
2023-04-18T02:01:30.170Z,23.10
2023-04-18T02:02:30.388Z,23.11
2023-04-18T02:03:30.318Z,23.11
2023-04-18T02:04:30.187Z,23.10
2023-04-18T02:05:30.240Z,23.10
2023-04-18T02:06:30.228Z,23.10
2023-04-18T02:07:30.267Z,23.10
2023-04-18T02:08:30.299Z,23.10
2023-04-18T02:09:30.361Z,23.10
2023-04-18T02:10:30.365Z,23.10
2023-04-18T02:11:30.410Z,23.09
2023-04-18T02:12:30.436Z,23.09
2023-04-18T02:13:30.486Z,23.09
2023-04-18T02:14:30.515Z,23.10
2023-04-18T02:15:30.517Z,23.10
2023-04-18T02:16:30.615Z,23.09
2023-04-18T02:17:30.605Z,23.10
2023-04-18T02:18:30.594Z,23.09
2023-04-18T02:19:30.648Z,23.10
2023-04-18T02:20:30.642Z,23.09
2023-04-18T02:21:30.700Z,23.09
2023-04-18T02:22:30.710Z,23.09
2023-04-18T02:23:30.791Z,23.09
2023-04-18T02:24:30.787Z,23.09
2023-04-18T02:25:30.791Z,23.09
2023-04-18T02:26:30.858Z,23.09
2023-04-18T02:27:30.845Z,23.09
2023-04-18T02:28:30.885Z,23.09
2023-04-18T02:29:30.932Z,23.09
2023-04-18T02:30:30.960Z,23.08
2023-04-18T02:31:31.015Z,23.09
2023-04-18T02:32:31.063Z,23.09
2023-04-18T02:33:31.049Z,23.08
2023-04-18T02:34:31.062Z,23.08
2023-04-18T02:35:31.104Z,23.08
2023-04-18T02:36:31.145Z,23.08
2023-04-18T02:37:31.185Z,23.08
2023-04-18T02:38:31.184Z,23.08
2023-04-18T02:39:31.224Z,23.08
2023-04-18T02:40:31.277Z,23.08
2023-04-18T02:41:31.355Z,23.08
2023-04-18T02:42:31.318Z,23.08
2023-04-18T02:43:31.350Z,23.08
2023-04-18T02:44:31.411Z,23.09
2023-04-18T02:45:31.406Z,23.08
2023-04-18T02:46:31.487Z,23.08
2023-04-18T02:47:37.532Z,23.09
2023-04-18T02:48:32.483Z,23.08
2023-04-18T02:49:31.441Z,23.08
2023-04-18T02:50:31.446Z,23.08
2023-04-18T02:51:31.420Z,23.08
2023-04-18T02:52:31.432Z,23.08
2023-04-18T02:53:31.443Z,23.08
2023-04-18T02:54:31.415Z,23.08
2023-04-18T02:55:31.412Z,23.08
2023-04-18T02:56:31.402Z,23.08
2023-04-18T02:57:31.395Z,23.07
2023-04-18T02:58:31.430Z,23.07
2023-04-18T02:59:31.376Z,23.07
2023-04-18T03:00:31.346Z,23.08
2023-04-18T03:01:31.394Z,23.08
2023-04-18T03:02:32.155Z,23.08
2023-04-18T03:03:31.399Z,23.07
2023-04-18T03:04:31.476Z,23.07
2023-04-18T03:05:31.440Z,23.07
2023-04-18T03:06:31.484Z,23.07
2023-04-18T03:07:31.543Z,23.07
2023-04-18T03:08:31.583Z,23.07
2023-04-18T03:09:31.596Z,23.07
2023-04-18T03:10:31.633Z,23.07
2023-04-18T03:11:31.685Z,23.07
2023-04-18T03:12:31.721Z,23.07
2023-04-18T03:13:31.766Z,23.07
2023-04-18T03:14:31.806Z,23.07
2023-04-18T03:15:31.889Z,23.07
2023-04-18T03:16:31.854Z,23.07
2023-04-18T03:17:31.911Z,23.07
2023-04-18T03:18:31.952Z,23.07
2023-04-18T03:19:31.983Z,23.07
2023-04-18T03:20:31.995Z,23.06
2023-04-18T03:21:32.015Z,23.07
2023-04-18T03:22:32.060Z,23.06
2023-04-18T03:23:32.098Z,23.06
2023-04-18T03:24:32.163Z,23.07
2023-04-18T03:25:32.199Z,23.06
2023-04-18T03:26:32.186Z,23.06
2023-04-18T03:27:32.216Z,23.06
2023-04-18T03:28:32.276Z,23.06
2023-04-18T03:29:32.329Z,23.06
2023-04-18T03:30:32.342Z,23.06
2023-04-18T03:31:32.405Z,23.06
2023-04-18T03:32:32.412Z,23.06
2023-04-18T03:33:32.452Z,23.06
2023-04-18T03:34:32.485Z,23.05
2023-04-18T03:35:32.498Z,23.06
2023-04-18T03:36:32.567Z,23.06
2023-04-18T03:37:32.607Z,23.06
2023-04-18T03:38:32.616Z,23.06
2023-04-18T03:39:32.696Z,23.05
2023-04-18T03:40:32.688Z,23.06
2023-04-18T03:41:32.719Z,23.05
2023-04-18T03:42:32.778Z,23.05
2023-04-18T03:43:32.790Z,23.05
2023-04-18T03:44:32.802Z,23.06
2023-04-18T03:45:32.836Z,23.05
2023-04-18T03:46:33.005Z,23.05
2023-04-18T03:47:32.947Z,23.06
2023-04-18T03:48:32.945Z,23.05
2023-04-18T03:49:32.993Z,23.06
2023-04-18T03:50:33.044Z,23.05
2023-04-18T03:51:33.053Z,23.05
2023-04-18T03:52:33.081Z,23.06
2023-04-18T03:53:33.092Z,23.05
2023-04-18T03:54:33.115Z,23.05
2023-04-18T03:55:33.161Z,23.06
2023-04-18T03:56:33.247Z,23.05
2023-04-18T03:57:33.239Z,23.05
2023-04-18T03:58:33.252Z,23.05
2023-04-18T03:59:33.301Z,23.05
2023-04-18T04:00:33.349Z,23.05
2023-04-18T04:01:33.504Z,23.05
2023-04-18T04:02:33.520Z,23.06
2023-04-18T04:03:33.484Z,23.04
2023-04-18T04:04:33.510Z,23.05
2023-04-18T04:05:33.462Z,23.05
2023-04-18T04:06:33.513Z,23.04
2023-04-18T04:07:33.560Z,23.05
2023-04-18T04:08:33.569Z,23.04
2023-04-18T04:09:33.623Z,23.05
2023-04-18T04:10:33.658Z,23.05
2023-04-18T04:11:33.688Z,23.04
2023-04-18T04:12:33.747Z,23.05
2023-04-18T04:13:33.753Z,23.04
2023-04-18T04:14:33.793Z,23.04
2023-04-18T04:15:33.792Z,23.04
2023-04-18T04:16:33.885Z,23.05
2023-04-18T04:17:33.904Z,23.04
2023-04-18T04:18:33.906Z,23.04
2023-04-18T04:19:33.959Z,23.05
2023-04-18T04:20:33.952Z,23.04
2023-04-18T04:21:33.973Z,23.05
2023-04-18T04:22:34.045Z,23.04
2023-04-18T04:23:34.033Z,23.04
2023-04-18T04:24:34.123Z,23.04
2023-04-18T04:25:34.142Z,23.04
2023-04-18T04:26:34.164Z,23.04
2023-04-18T04:27:34.186Z,23.03
2023-04-18T04:28:34.227Z,23.04
2023-04-18T04:29:34.317Z,23.04
2023-04-18T04:30:34.350Z,23.04
2023-04-18T04:31:34.385Z,23.04
2023-04-18T04:32:34.410Z,23.04
2023-04-18T04:33:34.560Z,23.04
2023-04-18T04:34:34.502Z,23.03
2023-04-18T04:35:34.514Z,23.04
2023-04-18T04:36:34.566Z,23.03
2023-04-18T04:37:34.566Z,23.04
2023-04-18T04:38:34.613Z,23.04
2023-04-18T04:39:34.707Z,23.04
2023-04-18T04:40:34.703Z,23.03
2023-04-18T04:41:34.741Z,23.04
2023-04-18T04:42:34.772Z,23.04
2023-04-18T04:43:34.820Z,23.04
2023-04-18T04:44:34.898Z,23.04
2023-04-18T04:45:34.897Z,23.04
2023-04-18T04:46:34.896Z,23.04
2023-04-18T04:47:34.990Z,23.03
2023-04-18T04:48:34.987Z,23.04
2023-04-18T04:49:35.042Z,23.03
2023-04-18T04:50:35.044Z,23.03
2023-04-18T04:51:35.122Z,23.03
2023-04-18T04:52:35.106Z,23.03
2023-04-18T04:53:35.155Z,23.04
2023-04-18T04:54:35.243Z,23.03
2023-04-18T04:55:35.221Z,23.03
2023-04-18T04:56:35.254Z,23.04
2023-04-18T04:57:35.326Z,23.03
2023-04-18T04:58:35.326Z,23.04
2023-04-18T04:59:35.378Z,23.03
2023-04-18T05:00:35.370Z,23.04
2023-04-18T05:01:35.443Z,23.03
2023-04-18T05:02:35.559Z,23.04
2023-04-18T05:03:35.626Z,23.04
2023-04-18T05:04:35.594Z,23.04
2023-04-18T05:05:35.555Z,23.04
2023-04-18T05:06:35.586Z,23.03
2023-04-18T05:07:35.586Z,23.03
2023-04-18T05:08:35.659Z,23.03
2023-04-18T05:09:35.709Z,23.03
2023-04-18T05:10:35.681Z,23.03
2023-04-18T05:11:35.759Z,23.03
2023-04-18T05:12:35.774Z,23.03
2023-04-18T05:13:35.793Z,23.04
2023-04-18T05:14:35.863Z,23.03
2023-04-18T05:15:35.841Z,23.03
2023-04-18T05:16:35.962Z,23.04
2023-04-18T05:17:35.934Z,23.03
2023-04-18T05:18:35.944Z,23.04
2023-04-18T05:19:36.012Z,23.04
2023-04-18T05:20:36.031Z,23.04
2023-04-18T05:21:36.094Z,23.04
2023-04-18T05:22:36.094Z,23.04
2023-04-18T05:23:36.134Z,23.04
2023-04-18T05:24:36.226Z,23.03
2023-04-18T05:25:36.188Z,23.04
2023-04-18T05:26:36.267Z,23.04
2023-04-18T05:27:36.288Z,23.04
2023-04-18T05:28:36.302Z,23.04
2023-04-18T05:29:36.860Z,23.04
2023-04-18T05:30:36.420Z,23.04
2023-04-18T05:31:36.581Z,23.04
2023-04-18T05:32:36.481Z,23.04
2023-04-18T05:33:36.474Z,23.04
2023-04-18T05:34:38.589Z,23.04
2023-04-18T05:35:36.566Z,23.02
2023-04-18T05:36:36.598Z,23.01
2023-04-18T05:37:36.644Z,23.04
2023-04-18T05:38:36.687Z,23.04
2023-04-18T05:39:36.699Z,23.06
2023-04-18T05:40:36.878Z,23.07
2023-04-18T05:41:36.746Z,23.09
2023-04-18T05:42:36.802Z,23.09
2023-04-18T05:43:36.791Z,23.12
2023-04-18T05:44:36.811Z,23.14
2023-04-18T05:45:36.867Z,23.15
2023-04-18T05:46:36.941Z,23.18
2023-04-18T05:47:37.067Z,23.21
2023-04-18T05:48:36.917Z,23.23
2023-04-18T05:49:36.945Z,23.26
2023-04-18T05:50:36.975Z,23.30
2023-04-18T05:51:37.019Z,23.33
2023-04-18T05:52:37.025Z,23.28
2023-04-18T05:53:37.049Z,23.13
2023-04-18T05:54:37.113Z,22.90
2023-04-18T05:55:37.154Z,22.66
2023-04-18T05:56:37.214Z,22.50
2023-04-18T05:57:37.223Z,22.40
2023-04-18T05:58:37.199Z,22.26
2023-04-18T05:59:37.212Z,22.22
2023-04-18T06:00:37.215Z,22.16
2023-04-18T06:01:37.236Z,22.14
2023-04-18T06:02:37.332Z,22.18
2023-04-18T06:03:37.422Z,22.25
2023-04-18T06:04:37.325Z,22.33
2023-04-18T06:05:37.379Z,22.41
2023-04-18T06:06:37.236Z,22.50
2023-04-18T06:07:37.333Z,22.57
2023-04-18T06:08:37.351Z,22.66
2023-04-18T06:09:37.478Z,22.74
2023-04-18T06:10:39.208Z,22.85
2023-04-18T06:11:37.507Z,22.93
2023-04-18T06:12:37.568Z,23.02
2023-04-18T06:13:37.631Z,23.09
2023-04-18T06:14:37.607Z,23.18
2023-04-18T06:15:37.641Z,23.23
2023-04-18T06:16:37.963Z,23.31
2023-04-18T06:17:37.733Z,23.38
2023-04-18T06:18:37.678Z,23.45
2023-04-18T06:19:37.681Z,23.49
2023-04-18T06:20:37.721Z,23.55
2023-04-18T06:21:37.698Z,23.59
2023-04-18T06:22:37.709Z,23.62
2023-04-18T06:23:37.705Z,23.67
2023-04-18T06:24:37.751Z,23.70
2023-04-18T06:25:37.759Z,23.73
2023-04-18T06:26:37.718Z,23.75
2023-04-18T06:27:37.760Z,23.78
2023-04-18T06:28:37.815Z,23.82
2023-04-18T06:29:38.064Z,23.84
2023-04-18T06:30:37.967Z,23.86
2023-04-18T06:31:38.065Z,23.88
2023-04-18T06:32:38.135Z,23.90
2023-04-18T06:33:38.148Z,23.91
2023-04-18T06:34:38.230Z,23.93
2023-04-18T06:35:38.294Z,23.94
2023-04-18T06:36:38.307Z,23.97
2023-04-18T06:37:38.380Z,23.98
2023-04-18T06:38:38.414Z,23.98
2023-04-18T06:39:38.462Z,24.00
2023-04-18T06:40:38.503Z,24.01
2023-04-18T06:41:38.759Z,24.02
2023-04-18T06:42:38.601Z,24.04
2023-04-18T06:43:38.636Z,24.05
2023-04-18T06:44:38.693Z,24.06
2023-04-18T06:45:39.004Z,24.07
2023-04-18T06:46:38.749Z,24.08
2023-04-18T06:47:38.797Z,24.08
2023-04-18T06:48:38.831Z,24.10
2023-04-18T06:49:38.880Z,23.99
2023-04-18T06:50:38.956Z,23.59
2023-04-18T06:51:38.946Z,22.93
2023-04-18T06:52:38.948Z,22.41
2023-04-18T06:53:39.039Z,21.82
2023-04-18T06:54:39.028Z,21.51
2023-04-18T06:55:39.075Z,21.39
2023-04-18T06:56:39.101Z,21.34
2023-04-18T06:57:39.366Z,21.44
2023-04-18T06:58:39.207Z,21.50
2023-04-18T06:59:39.243Z,21.50
2023-04-18T07:00:39.330Z,21.54
2023-04-18T07:01:39.564Z,21.51
2023-04-18T07:02:39.533Z,21.59
2023-04-18T07:03:39.552Z,21.68
2023-04-18T07:04:39.601Z,21.81
2023-04-18T07:05:39.879Z,21.88
2023-04-18T07:06:39.601Z,21.98
2023-04-18T07:07:39.618Z,22.05
2023-04-18T07:08:39.613Z,22.09
2023-04-18T07:09:39.608Z,22.17
2023-04-18T07:10:39.640Z,22.26
2023-04-18T07:11:39.600Z,22.35
2023-04-18T07:12:39.595Z,22.35
2023-04-18T07:13:39.585Z,22.32
2023-04-18T07:14:39.622Z,22.33
2023-04-18T07:15:39.617Z,22.40
2023-04-18T07:16:39.651Z,22.38
2023-04-18T07:17:39.654Z,22.37
2023-04-18T07:18:39.640Z,22.36
2023-04-18T07:19:39.636Z,22.43
2023-04-18T07:20:39.624Z,22.48
2023-04-18T07:21:39.688Z,22.57
2023-04-18T07:22:39.757Z,22.65
2023-04-18T07:23:39.813Z,22.71
2023-04-18T07:24:39.851Z,22.77
2023-04-18T07:25:39.939Z,22.83
2023-04-18T07:26:39.992Z,22.86
2023-04-18T07:27:40.014Z,22.91
2023-04-18T07:28:40.065Z,22.87
2023-04-18T07:29:40.326Z,22.87
2023-04-18T07:30:40.196Z,22.89
2023-04-18T07:31:40.236Z,22.94
2023-04-18T07:32:40.344Z,22.98
2023-04-18T07:33:40.329Z,23.04
2023-04-18T07:34:40.422Z,23.09
2023-04-18T07:35:40.376Z,23.13
2023-04-18T07:36:40.416Z,23.19
2023-04-18T07:37:40.442Z,23.25
2023-04-18T07:38:40.494Z,23.30
2023-04-18T07:39:40.484Z,23.14
2023-04-18T07:40:40.919Z,23.02
2023-04-18T07:41:40.615Z,23.06
2023-04-18T07:42:40.752Z,23.10
2023-04-18T07:43:40.700Z,23.15
2023-04-18T07:44:40.688Z,23.21
2023-04-18T07:45:40.956Z,23.29
2023-04-18T07:46:40.821Z,23.34
2023-04-18T07:47:40.751Z,23.40
2023-04-18T07:48:40.900Z,23.42
2023-04-18T07:49:40.727Z,23.50
2023-04-18T07:50:40.922Z,23.57
2023-04-18T07:51:40.721Z,23.63
2023-04-18T07:52:40.797Z,23.70
2023-04-18T07:53:41.053Z,23.75
2023-04-18T07:54:40.809Z,23.79
2023-04-18T07:55:41.056Z,23.84
2023-04-18T07:56:40.890Z,23.88
2023-04-18T07:57:40.916Z,23.90
2023-04-18T07:58:40.965Z,23.91
2023-04-18T07:59:41.030Z,23.91
2023-04-18T08:00:41.090Z,23.92
2023-04-18T08:01:41.182Z,23.94
2023-04-18T08:02:41.459Z,23.96
2023-04-18T08:03:41.380Z,23.98
2023-04-18T08:04:41.498Z,23.99
2023-04-18T08:05:41.427Z,24.00
2023-04-18T08:06:41.443Z,24.01
2023-04-18T08:07:41.456Z,24.02
2023-04-18T08:08:41.566Z,24.02
2023-04-18T08:09:41.573Z,24.03
2023-04-18T08:10:41.625Z,24.05
2023-04-18T08:11:41.651Z,24.06
2023-04-18T08:12:41.693Z,24.07
2023-04-18T08:13:41.740Z,24.08
2023-04-18T08:14:41.868Z,24.09
2023-04-18T08:15:41.898Z,24.10
2023-04-18T08:16:42.018Z,24.11
2023-04-18T08:17:42.217Z,24.13
2023-04-18T08:18:42.012Z,24.14
2023-04-18T08:19:42.034Z,24.14
2023-04-18T08:20:42.092Z,24.16
2023-04-18T08:21:42.118Z,24.17
2023-04-18T08:22:57.756Z,24.17
2023-04-18T08:23:43.165Z,24.18
2023-04-18T08:24:57.246Z,24.19
2023-04-18T08:25:43.147Z,24.20
2023-04-18T08:26:42.132Z,24.20
2023-04-18T08:27:42.137Z,24.21
2023-04-18T08:28:43.745Z,24.22
2023-04-18T08:29:42.103Z,24.24
2023-04-18T08:30:42.096Z,24.25
2023-04-18T08:31:42.147Z,24.27
2023-04-18T08:32:42.144Z,24.28
2023-04-18T08:33:42.147Z,24.30
2023-04-18T08:34:42.063Z,24.30
2023-04-18T08:35:42.085Z,24.30
2023-04-18T08:36:42.449Z,24.32
2023-04-18T08:37:42.053Z,24.31
2023-04-18T08:38:42.025Z,24.33
2023-04-18T08:39:42.044Z,24.35
2023-04-18T08:40:42.030Z,24.38
2023-04-18T08:41:42.423Z,24.38
2023-04-18T08:42:42.003Z,24.39
2023-04-18T08:43:42.044Z,24.41
2023-04-18T08:44:42.027Z,24.43
2023-04-18T08:45:42.026Z,24.26
2023-04-18T08:46:42.426Z,24.00
2023-04-18T08:47:42.159Z,23.78
2023-04-18T08:48:41.964Z,23.65
2023-04-18T08:49:41.975Z,23.53
2023-04-18T08:50:41.970Z,23.47
2023-04-18T08:51:42.436Z,23.38
2023-04-18T08:52:41.918Z,23.31
2023-04-18T08:53:41.920Z,23.35
2023-04-18T08:54:41.933Z,23.38
2023-04-18T08:55:41.902Z,23.33
2023-04-18T08:56:41.938Z,23.29
2023-04-18T08:57:41.900Z,23.26
2023-04-18T08:58:41.899Z,23.22
2023-04-18T08:59:43.213Z,23.19
2023-04-18T09:00:41.876Z,23.15
2023-04-18T09:01:41.881Z,23.09
2023-04-18T09:02:42.001Z,23.00
2023-04-18T09:03:41.941Z,22.98
2023-04-18T09:04:41.834Z,22.97
2023-04-18T09:05:42.004Z,22.95
2023-04-18T09:06:41.843Z,23.00
2023-04-18T09:07:41.829Z,23.04
2023-04-18T09:08:41.845Z,23.07
2023-04-18T09:09:41.811Z,23.08
2023-04-18T09:10:41.787Z,23.16
2023-04-18T09:11:41.842Z,23.25
2023-04-18T09:12:41.880Z,23.35
2023-04-18T09:13:41.954Z,23.44
2023-04-18T09:14:41.901Z,23.51
2023-04-18T09:15:41.880Z,23.59
2023-04-18T09:16:41.974Z,23.64
2023-04-18T09:17:41.922Z,23.71
2023-04-18T09:18:43.485Z,23.75
2023-04-18T09:19:41.883Z,23.81
2023-04-18T09:20:41.888Z,23.87
2023-04-18T09:21:41.878Z,23.92
2023-04-18T09:22:41.900Z,23.96
2023-04-18T09:23:41.950Z,24.01
2023-04-18T09:24:41.963Z,24.02
2023-04-18T09:25:43.578Z,24.01
2023-04-18T09:26:42.450Z,24.02
2023-04-18T09:27:42.333Z,24.05
2023-04-18T09:28:42.390Z,24.07
2023-04-18T09:29:42.444Z,24.11
2023-04-18T09:30:42.550Z,24.13
2023-04-18T09:31:42.946Z,24.17
2023-04-18T09:32:42.649Z,24.20
2023-04-18T09:33:42.673Z,24.22
2023-04-18T09:34:42.751Z,24.23
2023-04-18T09:35:42.811Z,24.25
2023-04-18T09:36:43.004Z,24.27
2023-04-18T09:37:42.893Z,24.29
2023-04-18T09:38:42.972Z,24.30
2023-04-18T09:39:43.078Z,24.32
2023-04-18T09:40:43.049Z,24.32
2023-04-18T09:41:43.615Z,24.30
2023-04-18T09:42:43.173Z,24.29
2023-04-18T09:43:43.219Z,24.30
2023-04-18T09:44:43.284Z,24.28
2023-04-18T09:45:43.364Z,24.26
2023-04-18T09:46:46.659Z,24.21
2023-04-18T09:47:43.381Z,24.17
2023-04-18T09:48:43.365Z,24.11
2023-04-18T09:49:43.358Z,24.11
2023-04-18T09:50:43.358Z,24.13
2023-04-18T09:51:43.465Z,24.15
2023-04-18T09:52:43.350Z,24.17
2023-04-18T09:53:43.356Z,24.19
2023-04-18T09:54:43.350Z,24.21
2023-04-18T09:55:43.960Z,24.23
2023-04-18T09:56:43.317Z,24.25
2023-04-18T09:57:43.285Z,24.27
2023-04-18T09:58:43.280Z,24.29
2023-04-18T09:59:43.287Z,24.30
2023-04-18T10:00:44.972Z,24.32
2023-04-18T10:01:43.287Z,24.33
2023-04-18T10:02:43.327Z,24.35
2023-04-18T10:03:43.372Z,24.35
2023-04-18T10:04:43.286Z,24.36
2023-04-18T10:05:43.352Z,24.36
2023-04-18T10:06:43.250Z,24.37
2023-04-18T10:07:43.251Z,24.37
2023-04-18T10:08:43.193Z,24.38
2023-04-18T10:09:43.219Z,24.38
2023-04-18T10:10:43.250Z,24.38
2023-04-18T10:11:43.208Z,24.39
2023-04-18T10:12:43.184Z,24.39
2023-04-18T10:13:43.233Z,24.41
2023-04-18T10:14:43.200Z,24.40
2023-04-18T10:15:44.295Z,24.40
2023-04-18T10:16:43.295Z,24.39
2023-04-18T10:17:56.102Z,24.40
2023-04-18T10:18:44.187Z,24.39
2023-04-18T10:19:44.244Z,24.41
2023-04-18T10:20:43.140Z,24.41
2023-04-18T10:21:43.141Z,24.41
2023-04-18T10:22:43.124Z,24.40
2023-04-18T10:23:43.131Z,24.41
2023-04-18T10:24:43.119Z,24.42
2023-04-18T10:25:43.091Z,24.42
2023-04-18T10:26:43.098Z,24.41
2023-04-18T10:27:43.077Z,24.42
2023-04-18T10:28:43.065Z,24.40
2023-04-18T10:29:43.119Z,24.40
2023-04-18T10:30:43.150Z,24.40
2023-04-18T10:31:43.248Z,24.41
2023-04-18T10:32:43.278Z,24.42
2023-04-18T10:33:43.387Z,24.42
2023-04-18T10:34:43.330Z,24.42
2023-04-18T10:35:43.524Z,24.36
2023-04-18T10:36:43.482Z,24.34
2023-04-18T10:37:43.611Z,24.29
2023-04-18T10:38:43.493Z,24.28
2023-04-18T10:39:43.550Z,24.31
2023-04-18T10:40:43.642Z,24.34
2023-04-18T10:41:43.672Z,24.33
2023-04-18T10:42:43.675Z,24.36
2023-04-18T10:43:43.746Z,24.39
2023-04-18T10:44:43.784Z,24.43
2023-04-18T10:45:43.806Z,24.46
2023-04-18T10:46:43.918Z,24.47
2023-04-18T10:47:44.026Z,24.47
2023-04-18T10:48:43.968Z,24.49
2023-04-18T10:49:43.993Z,24.51
2023-04-18T10:50:44.051Z,24.54
2023-04-18T10:51:44.495Z,24.55
2023-04-18T10:52:44.105Z,24.58
2023-04-18T10:53:44.143Z,24.59
2023-04-18T10:54:44.191Z,24.60
2023-04-18T10:55:44.270Z,24.59
2023-04-18T10:56:44.302Z,24.58
2023-04-18T10:57:44.470Z,24.58
2023-04-18T10:58:44.357Z,24.58
2023-04-18T10:59:44.443Z,24.58
2023-04-18T11:00:44.445Z,24.60
2023-04-18T11:01:44.488Z,24.63
2023-04-18T11:02:44.602Z,24.66
2023-04-18T11:03:44.615Z,24.69
2023-04-18T11:04:44.551Z,24.71
2023-04-18T11:05:44.608Z,24.73
2023-04-18T11:06:44.607Z,24.76
2023-04-18T11:07:44.616Z,24.77
2023-04-18T11:08:44.612Z,24.78
2023-04-18T11:09:45.566Z,24.78
2023-04-18T11:10:44.622Z,24.79
2023-04-18T11:11:44.694Z,24.81
2023-04-18T11:12:45.460Z,24.82
2023-04-18T11:13:44.788Z,24.84
2023-04-18T11:14:44.726Z,24.84
2023-04-18T11:15:44.691Z,24.84
2023-04-18T11:16:44.735Z,24.84
2023-04-18T11:17:44.724Z,24.85
2023-04-18T11:18:44.666Z,24.85
2023-04-18T11:19:44.705Z,24.86
2023-04-18T11:20:44.680Z,24.88
2023-04-18T11:21:44.994Z,24.89
2023-04-18T11:22:44.659Z,24.91
2023-04-18T11:23:44.665Z,24.94
2023-04-18T11:24:44.678Z,24.94
2023-04-18T11:25:44.699Z,24.93
2023-04-18T11:26:44.751Z,24.94
2023-04-18T11:27:44.752Z,24.93
2023-04-18T11:28:44.814Z,24.93
2023-04-18T11:29:44.776Z,24.95
2023-04-18T11:30:44.818Z,24.96
2023-04-18T11:31:45.084Z,24.97
2023-04-18T11:32:44.924Z,24.98
2023-04-18T11:33:44.918Z,24.98
2023-04-18T11:34:44.898Z,24.99
2023-04-18T11:35:44.928Z,24.99
2023-04-18T11:36:44.954Z,24.99
2023-04-18T11:37:45.541Z,24.99
2023-04-18T11:38:45.078Z,24.99
2023-04-18T11:39:45.053Z,24.98
2023-04-18T11:40:45.105Z,24.98
2023-04-18T11:41:45.175Z,24.98
2023-04-18T11:42:45.243Z,24.97
2023-04-18T11:43:45.266Z,24.97
2023-04-18T11:44:45.283Z,24.95
2023-04-18T11:45:45.476Z,24.95
2023-04-18T11:46:45.389Z,24.93
2023-04-18T11:47:45.531Z,24.92
2023-04-18T11:48:45.499Z,24.91
2023-04-18T11:49:45.525Z,24.89
2023-04-18T11:50:45.576Z,24.88
2023-04-18T11:51:45.641Z,24.86
2023-04-18T11:52:45.668Z,24.84
2023-04-18T11:53:45.722Z,24.83
2023-04-18T11:54:45.732Z,24.81
2023-04-18T11:55:45.800Z,24.80
2023-04-18T11:56:45.848Z,24.80
2023-04-18T11:57:45.875Z,24.80
2023-04-18T11:58:45.865Z,24.80
2023-04-18T11:59:45.893Z,24.80
2023-04-18T12:00:45.908Z,24.80
2023-04-18T12:01:46.113Z,24.79
2023-04-18T12:02:46.109Z,24.81
2023-04-18T12:03:46.209Z,24.80
2023-04-18T12:04:46.303Z,24.81
2023-04-18T12:05:46.231Z,24.82
2023-04-18T12:06:46.116Z,24.82
2023-04-18T12:07:46.111Z,24.83
2023-04-18T12:08:46.162Z,24.82
2023-04-18T12:09:46.172Z,24.84
2023-04-18T12:10:46.189Z,24.86
2023-04-18T12:11:46.251Z,24.86
2023-04-18T12:12:46.269Z,24.86
2023-04-18T12:13:46.287Z,24.86
2023-04-18T12:14:46.270Z,24.87
2023-04-18T12:15:46.337Z,24.88
2023-04-18T12:16:46.343Z,24.88
2023-04-18T12:17:46.507Z,24.89
2023-04-18T12:18:46.394Z,24.87
2023-04-18T12:19:47.957Z,24.84
2023-04-18T12:20:46.430Z,24.82
2023-04-18T12:21:46.396Z,24.78
2023-04-18T12:22:46.407Z,24.77
2023-04-18T12:23:46.369Z,24.75
2023-04-18T12:24:46.380Z,24.74
2023-04-18T12:25:46.326Z,24.72
2023-04-18T12:26:46.338Z,24.71
2023-04-18T12:27:46.364Z,24.72
2023-04-18T12:28:46.344Z,24.71
2023-04-18T12:29:46.331Z,24.68
2023-04-18T12:30:46.337Z,24.62
2023-04-18T12:31:46.304Z,24.58
2023-04-18T12:32:46.328Z,24.55
2023-04-18T12:33:46.278Z,24.54
2023-04-18T12:34:46.274Z,24.54
2023-04-18T12:35:47.798Z,24.53
2023-04-18T12:36:46.299Z,24.54
2023-04-18T12:37:46.273Z,24.56
2023-04-18T12:38:46.238Z,24.57
2023-04-18T12:39:46.241Z,24.58
2023-04-18T12:40:46.225Z,24.60
2023-04-18T12:41:47.133Z,24.61
2023-04-18T12:42:46.232Z,24.63
2023-04-18T12:43:46.205Z,24.65
2023-04-18T12:44:47.958Z,24.65
2023-04-18T12:45:46.186Z,24.67
2023-04-18T12:46:46.275Z,24.68
2023-04-18T12:47:46.189Z,24.69
2023-04-18T12:48:46.186Z,24.70
2023-04-18T12:49:46.248Z,24.72
2023-04-18T12:50:46.146Z,24.74
2023-04-18T12:51:46.160Z,24.76
2023-04-18T12:52:46.141Z,24.77